Portada
METAR-TAF:

METAR-TAF

Aeroports :

Bauru, São Paulo, Brasil

latitud: 22-19S, longitud: 049-04W, altitud: 590 m

Observació

L'informe es va fer fa 1 hora i 3 minuts, a les 23:00 UTC
Vent 2 kt del Nord
Temperatura 28°C
Humitat 35%
Pressió 1013 hPa
Visibilitat 10 km o més
sense núvols per sota de 1500 mi sense presència de cumulonimbus.

METAR: SBBU 122300Z 01002KT CAVOK 28/11 Q1013

Hora: 21:03 (00:03 UTC)

Pronòstic

L'informe es va fer fa 9 hores i 3 minuts, a les 15:00 UTC
Pronòstic vàlid del 12 a les 18 UTC al 13 a les 06 UTC
Vent 10 kt del Nord
Visibilitat 10 km o més
sense núvols per sota de 1500 mi sense presència de cumulonimbus.
Evolucionant progressivament
l' 12 a les 21 UTC al 12 a les 23 UTC
Vent 5 kt del Est

TAF: SBBU 121500Z 1218/1306 35010KT CAVOK TX32/1218Z TN22/1306Z BECMG 1221/1223 08005KT RMK PDW

Observacions i pronòstics meteorològics de més de 4000 aeroports (METAR i TAF).

Les estacions disponibles són els punts grocs i vermells al mapa.

Posi el ratolí al punt desitjat per veure el nom de l'estació.

Feu clic per veure les observacions i els pronòstics meteorològics.

Per canviar el mapa: feu clic els botons verds amb una creu de color negre per apropar; al botó verd amb un guió per allunyar la imatge; o en les fletxes verdes per a mapes adjacents.


METAR-TAF: